createdAt,value
2023-03-28T00:01:13.935Z,43.58
2023-03-28T00:03:42.706Z,43.37
2023-03-28T00:06:12.616Z,42.88
2023-03-28T00:08:42.031Z,42.51
2023-03-28T00:11:12.887Z,42.42
2023-03-28T00:13:41.342Z,42.02
2023-03-28T00:16:13.774Z,41.60
2023-03-28T00:18:43.297Z,41.21
2023-03-28T00:21:23.602Z,41.15
2023-03-28T00:23:53.944Z,41.16
2023-03-28T00:26:24.951Z,40.83
2023-03-28T00:28:54.849Z,41.15
2023-03-28T00:31:27.260Z,40.49
2023-03-28T00:33:56.394Z,41.02
2023-03-28T00:36:26.691Z,40.57
2023-03-28T00:38:55.339Z,40.82
2023-03-28T00:41:26.780Z,40.67
2023-03-28T00:43:56.726Z,40.46
2023-03-28T00:46:32.534Z,40.28
2023-03-28T00:49:06.821Z,40.62
2023-03-28T00:51:39.014Z,39.98
2023-03-28T00:54:12.116Z,40.06
2023-03-28T00:56:44.473Z,40.04
2023-03-28T00:59:16.554Z,39.55
2023-03-28T01:01:49.153Z,39.41
2023-03-28T01:04:22.369Z,39.98
2023-03-28T01:06:55.850Z,39.42
2023-03-28T01:09:25.878Z,39.88
2023-03-28T01:11:57.020Z,39.93
2023-03-28T01:14:29.184Z,39.98
2023-03-28T01:17:01.086Z,39.92
2023-03-28T01:19:45.803Z,40.37
2023-03-28T01:22:56.752Z,40.86
2023-03-28T01:26:20.257Z,40.72
2023-03-28T01:29:32.909Z,41.24
2023-03-28T01:32:50.698Z,41.20
2023-03-28T01:36:03.311Z,41.14
2023-03-28T01:38:40.877Z,41.35
2023-03-28T01:41:21.634Z,40.68
2023-03-28T01:43:57.618Z,41.10
2023-03-28T01:46:32.160Z,40.53
2023-03-28T01:49:08.275Z,40.21
2023-03-28T01:51:52.419Z,40.78
2023-03-28T01:54:31.297Z,40.74
2023-03-28T01:57:10.598Z,41.25
2023-03-28T01:59:43.708Z,41.10
2023-03-28T02:02:43.446Z,41.43
2023-03-28T02:05:28.466Z,41.65
2023-03-28T02:07:59.669Z,41.83
2023-03-28T02:10:43.345Z,41.53
2023-03-28T02:13:34.959Z,41.38
2023-03-28T02:16:16.935Z,41.29
2023-03-28T02:19:02.721Z,41.61
2023-03-28T02:22:08.467Z,41.63
2023-03-28T02:25:12.408Z,41.18
2023-03-28T02:28:00.405Z,41.44
2023-03-28T02:30:38.757Z,41.00
2023-03-28T02:33:10.221Z,40.75
2023-03-28T02:35:48.647Z,40.98
2023-03-28T02:38:25.733Z,40.40
2023-03-28T02:41:00.295Z,41.12
2023-03-28T02:43:46.667Z,40.88
2023-03-28T02:46:29.504Z,40.89
2023-03-28T02:49:19.089Z,41.21
2023-03-28T02:51:53.049Z,40.79
2023-03-28T02:54:30.112Z,40.59
2023-03-28T02:57:34.938Z,41.15
2023-03-28T03:00:11.653Z,41.35
2023-03-28T03:02:41.357Z,41.65
2023-03-28T03:05:10.151Z,42.47
2023-03-28T03:07:39.203Z,42.66
2023-03-28T03:10:09.364Z,42.92
2023-03-28T03:12:39.580Z,42.73
2023-03-28T03:15:11.922Z,43.56
2023-03-28T03:17:57.278Z,43.49
2023-03-28T03:20:32.989Z,43.83
2023-03-28T03:23:01.987Z,43.95
2023-03-28T03:25:32.522Z,43.97
2023-03-28T03:28:27.262Z,43.88
2023-03-28T03:30:57.604Z,44.24
2023-03-28T03:33:25.986Z,44.53
2023-03-28T03:36:00.412Z,44.40
2023-03-28T03:38:28.998Z,44.44
2023-03-28T03:40:57.507Z,44.53
2023-03-28T03:43:27.881Z,45.22
2023-03-28T03:45:58.059Z,44.65
2023-03-28T03:48:28.456Z,43.93
2023-03-28T03:51:01.839Z,43.40
2023-03-28T03:53:30.323Z,43.22
2023-03-28T03:56:10.197Z,42.60
2023-03-28T03:58:58.861Z,42.24
2023-03-28T04:01:40.060Z,41.71
2023-03-28T04:04:28.361Z,40.70
2023-03-28T04:07:22.850Z,40.66
2023-03-28T04:09:54.008Z,40.48
2023-03-28T04:12:22.662Z,40.99
2023-03-28T04:14:52.887Z,41.05
2023-03-28T04:17:35.322Z,40.85
2023-03-28T04:20:14.319Z,40.34
2023-03-28T04:23:01.698Z,40.28
2023-03-28T04:25:32.331Z,40.26
2023-03-28T04:28:11.691Z,39.69
2023-03-28T04:30:49.551Z,39.33
2023-03-28T04:33:37.760Z,39.82
2023-03-28T04:36:08.320Z,39.71
2023-03-28T04:38:37.383Z,40.11
2023-03-28T04:41:26.306Z,40.66
2023-03-28T04:44:03.883Z,41.24
2023-03-28T04:46:37.621Z,41.54
2023-03-28T04:49:14.262Z,41.98
2023-03-28T04:51:42.750Z,43.16
2023-03-28T04:54:11.230Z,43.15
2023-03-28T04:57:02.699Z,44.35
2023-03-28T04:59:39.581Z,44.95
2023-03-28T05:02:08.058Z,45.06
2023-03-28T05:04:46.027Z,44.44
2023-03-28T05:07:15.788Z,44.79
2023-03-28T05:09:44.643Z,43.84
2023-03-28T05:12:14.321Z,44.08
2023-03-28T05:15:21.866Z,44.18
2023-03-28T05:18:18.023Z,44.60
2023-03-28T05:20:48.241Z,44.21
2023-03-28T05:23:16.554Z,44.81
2023-03-28T05:25:51.987Z,44.83
2023-03-28T05:28:20.885Z,44.75
2023-03-28T05:30:52.598Z,45.19
2023-03-28T05:33:21.146Z,44.81
2023-03-28T05:35:52.029Z,44.93
2023-03-28T05:38:21.925Z,45.57
2023-03-28T05:40:54.505Z,45.79
2023-03-28T05:43:22.942Z,45.98
2023-03-28T05:45:51.398Z,46.14
2023-03-28T05:48:23.076Z,47.97
2023-03-28T05:50:52.905Z,48.42
2023-03-28T05:53:22.829Z,47.76
2023-03-28T05:55:51.927Z,48.94
2023-03-28T05:58:20.388Z,47.62
2023-03-28T06:00:48.872Z,47.05
2023-03-28T06:03:17.636Z,47.00
2023-03-28T06:05:48.147Z,46.12
2023-03-28T06:08:23.774Z,45.75
2023-03-28T06:10:52.404Z,45.60
2023-03-28T06:13:26.243Z,46.28
2023-03-28T06:15:55.145Z,45.94
2023-03-28T06:18:31.419Z,45.70
2023-03-28T06:20:59.927Z,45.15
2023-03-28T06:23:29.907Z,45.48
2023-03-28T06:25:58.547Z,45.71
2023-03-28T06:28:33.295Z,45.21
2023-03-28T06:31:19.915Z,46.17
2023-03-28T06:33:49.183Z,46.57
2023-03-28T06:36:20.779Z,44.84
2023-03-28T06:38:52.436Z,44.68
2023-03-28T06:41:22.911Z,45.04
2023-03-28T06:43:51.565Z,44.34
2023-03-28T06:46:52.186Z,43.67
2023-03-28T06:49:21.424Z,42.02
2023-03-28T06:52:08.270Z,41.07
2023-03-28T06:54:38.955Z,39.74
2023-03-28T06:57:07.282Z,38.53
2023-03-28T06:59:38.355Z,37.96
2023-03-28T07:02:12.101Z,38.10
2023-03-28T07:04:41.483Z,38.08
2023-03-28T07:07:10.085Z,37.25
2023-03-28T07:09:40.172Z,38.06
2023-03-28T07:12:13.966Z,37.94
2023-03-28T07:14:44.699Z,38.35
2023-03-28T07:17:13.281Z,38.59
2023-03-28T07:19:41.750Z,38.51
2023-03-28T07:22:10.536Z,37.69
2023-03-28T07:24:40.298Z,37.38
2023-03-28T07:27:16.210Z,37.45
2023-03-28T07:29:46.966Z,37.57
2023-03-28T07:32:16.239Z,37.64
2023-03-28T07:34:46.933Z,37.47
2023-03-28T07:37:21.223Z,38.30
2023-03-28T07:39:58.527Z,37.73
2023-03-28T07:42:28.778Z,36.77
2023-03-28T07:44:57.107Z,36.52
2023-03-28T07:47:25.469Z,37.17
2023-03-28T07:49:54.468Z,37.40
2023-03-28T07:52:23.628Z,36.49
2023-03-28T07:54:52.129Z,35.52
2023-03-28T07:57:21.977Z,35.55
2023-03-28T07:59:59.390Z,34.78
2023-03-28T08:02:29.405Z,34.29
2023-03-28T08:04:58.001Z,34.20
2023-03-28T08:07:28.347Z,34.05
2023-03-28T08:09:58.865Z,33.84
2023-03-28T08:12:31.648Z,33.19
2023-03-28T08:15:00.336Z,33.28
2023-03-28T08:17:29.790Z,33.73
2023-03-28T08:19:58.988Z,33.24
2023-03-28T08:22:30.769Z,32.62
2023-03-28T08:25:12.403Z,32.29
2023-03-28T08:27:42.449Z,32.15
2023-03-28T08:30:14.551Z,31.83
2023-03-28T08:32:54.351Z,31.24
2023-03-28T08:35:22.900Z,31.94
2023-03-28T08:37:56.112Z,31.05
2023-03-28T08:40:27.274Z,32.01
2023-03-28T08:43:31.411Z,31.33
2023-03-28T08:46:01.940Z,31.98
2023-03-28T08:48:39.163Z,31.06
2023-03-28T08:51:23.655Z,30.76
2023-03-28T08:54:03.789Z,30.98
2023-03-28T08:56:36.409Z,30.26
2023-03-28T08:59:08.774Z,30.43
2023-03-28T09:01:37.385Z,30.20
2023-03-28T09:04:06.387Z,29.83
2023-03-28T09:06:40.150Z,30.08
2023-03-28T09:09:29.172Z,28.84
2023-03-28T09:12:27.762Z,29.43
2023-03-28T09:15:14.944Z,29.32
2023-03-28T09:17:53.625Z,29.36
2023-03-28T09:20:29.975Z,29.22
2023-03-28T09:23:58.810Z,29.77
2023-03-28T09:26:58.675Z,31.19
2023-03-28T09:29:28.061Z,31.15
2023-03-28T09:32:02.413Z,29.37
2023-03-28T09:34:39.526Z,29.44
2023-03-28T09:37:19.035Z,29.39
2023-03-28T09:39:52.509Z,29.55
2023-03-28T09:42:32.685Z,29.50
2023-03-28T09:45:32.569Z,28.96
2023-03-28T09:48:03.722Z,29.14
2023-03-28T09:50:37.812Z,29.28
2023-03-28T09:53:06.973Z,28.43
2023-03-28T09:55:36.246Z,28.17
2023-03-28T09:58:09.809Z,27.46
2023-03-28T10:01:05.554Z,28.58
2023-03-28T10:04:17.527Z,27.54
2023-03-28T10:07:28.583Z,28.23
2023-03-28T10:10:12.372Z,28.39
2023-03-28T10:12:43.705Z,27.99
2023-03-28T10:15:32.361Z,28.04
2023-03-28T10:18:41.719Z,28.74
2023-03-28T10:21:21.102Z,28.01
2023-03-28T10:24:05.486Z,27.29
2023-03-28T10:26:34.439Z,28.37
2023-03-28T10:29:08.437Z,28.64
2023-03-28T10:31:40.294Z,28.04
2023-03-28T10:34:28.944Z,28.16
2023-03-28T10:37:24.164Z,27.98
2023-03-28T10:40:23.917Z,26.75
2023-03-28T10:43:37.528Z,26.21
2023-03-28T10:46:32.616Z,26.85
2023-03-28T10:49:22.790Z,26.68
2023-03-28T10:52:20.853Z,26.68
2023-03-28T10:55:04.968Z,26.86
2023-03-28T10:57:55.445Z,28.11
2023-03-28T11:00:28.561Z,28.40
2023-03-28T11:03:19.937Z,28.00
2023-03-28T11:06:08.045Z,27.80
2023-03-28T11:08:51.954Z,27.11
2023-03-28T11:11:40.703Z,26.95
2023-03-28T11:14:19.614Z,28.21
2023-03-28T11:16:59.101Z,27.74
2023-03-28T11:20:27.166Z,27.66
2023-03-28T11:23:38.058Z,27.56
2023-03-28T11:26:41.920Z,27.56
2023-03-28T11:29:50.195Z,28.16
2023-03-28T11:32:26.625Z,28.15
2023-03-28T11:35:05.763Z,27.06
2023-03-28T11:37:41.294Z,27.68
2023-03-28T11:40:21.280Z,27.89
2023-03-28T11:43:04.614Z,27.72
2023-03-28T11:45:51.014Z,27.85
2023-03-28T11:48:28.499Z,27.13
2023-03-28T11:51:05.105Z,27.06
2023-03-28T11:53:49.169Z,27.52
2023-03-28T11:56:29.807Z,25.87
2023-03-28T11:59:14.588Z,26.17
2023-03-28T12:01:48.272Z,25.84
2023-03-28T12:04:22.435Z,26.82
2023-03-28T12:07:07.557Z,25.93
2023-03-28T12:09:52.443Z,24.86
2023-03-28T12:12:26.259Z,25.38
2023-03-28T12:15:01.708Z,26.35
2023-03-28T12:17:59.342Z,24.68
2023-03-28T12:20:33.426Z,25.33
2023-03-28T12:23:12.760Z,25.17
2023-03-28T12:26:22.664Z,25.44
2023-03-28T12:28:54.533Z,25.42
2023-03-28T12:31:30.749Z,24.72
2023-03-28T12:34:15.394Z,23.91
2023-03-28T12:37:21.899Z,25.48
2023-03-28T12:39:55.993Z,25.10
2023-03-28T12:42:30.676Z,25.37
2023-03-28T12:45:01.708Z,24.88
2023-03-28T12:47:36.705Z,24.40
2023-03-28T12:50:09.096Z,24.32
2023-03-28T12:52:42.374Z,23.76
2023-03-28T12:55:48.735Z,23.37
2023-03-28T12:58:27.371Z,24.07
2023-03-28T13:01:29.941Z,24.17
2023-03-28T13:04:31.981Z,24.71
2023-03-28T13:07:26.049Z,24.59
2023-03-28T13:10:04.651Z,24.75
2023-03-28T13:12:49.618Z,24.27
2023-03-28T13:15:31.058Z,25.23
2023-03-28T13:18:31.890Z,24.16
2023-03-28T13:21:04.588Z,24.81
2023-03-28T13:23:36.871Z,24.99
2023-03-28T13:26:07.171Z,24.62
2023-03-28T13:28:42.411Z,23.98
2023-03-28T13:31:14.386Z,24.63
2023-03-28T13:33:48.431Z,23.77
2023-03-28T13:36:27.065Z,23.69
2023-03-28T13:39:20.109Z,24.10
2023-03-28T13:42:01.776Z,23.27
2023-03-28T13:44:40.411Z,23.77
2023-03-28T13:47:16.520Z,23.02
2023-03-28T13:49:49.290Z,22.81
2023-03-28T13:52:21.671Z,21.87
2023-03-28T13:54:54.454Z,23.35
2023-03-28T13:57:26.138Z,23.13
2023-03-28T14:00:00.140Z,22.56
2023-03-28T14:02:38.717Z,21.04
2023-03-28T14:05:19.578Z,20.57
2023-03-28T14:07:50.420Z,21.40
2023-03-28T14:10:29.050Z,21.58
2023-03-28T14:13:00.270Z,21.22
2023-03-28T14:15:33.773Z,21.20
2023-03-28T14:18:04.040Z,21.47
2023-03-28T14:20:34.381Z,22.04
2023-03-28T14:23:04.622Z,22.93
2023-03-28T14:25:34.350Z,24.24
2023-03-28T14:28:08.845Z,23.56
2023-03-28T14:30:42.487Z,24.13
2023-03-28T14:33:20.605Z,24.08
2023-03-28T14:35:58.501Z,23.30
2023-03-28T14:38:35.329Z,23.84
2023-03-28T14:41:15.391Z,24.15
2023-03-28T14:43:43.965Z,23.80
2023-03-28T14:46:12.610Z,23.66
2023-03-28T14:48:43.446Z,23.70
2023-03-28T14:51:14.893Z,23.16
2023-03-28T14:53:47.659Z,24.90
2023-03-28T14:56:23.709Z,23.38
2023-03-28T14:58:54.155Z,24.71
2023-03-28T15:01:24.029Z,24.97
2023-03-28T15:03:58.007Z,25.46
2023-03-28T15:06:29.502Z,25.56
2023-03-28T15:09:04.296Z,25.06
2023-03-28T15:11:36.612Z,25.05
2023-03-28T15:14:08.415Z,25.81
2023-03-28T15:16:39.737Z,26.02
2023-03-28T15:19:10.606Z,25.78
2023-03-28T15:21:42.003Z,25.47
2023-03-28T15:24:16.703Z,25.11
2023-03-28T15:26:47.967Z,25.41
2023-03-28T15:29:18.636Z,25.40
2023-03-28T15:31:48.068Z,25.16
2023-03-28T15:34:22.403Z,24.96
2023-03-28T15:36:52.821Z,25.66
2023-03-28T15:39:27.351Z,25.65
2023-03-28T15:42:00.640Z,25.81
2023-03-28T15:44:31.969Z,25.77
2023-03-28T15:47:02.958Z,25.78
2023-03-28T15:49:36.869Z,26.12
2023-03-28T15:52:09.407Z,25.73
2023-03-28T15:54:44.513Z,25.46
2023-03-28T15:57:15.830Z,26.32
2023-03-28T15:59:48.657Z,25.94
2023-03-28T16:02:32.723Z,26.86
2023-03-28T16:05:03.040Z,27.86
2023-03-28T16:07:36.606Z,28.70
2023-03-28T16:10:07.556Z,28.63
2023-03-28T16:12:50.649Z,29.00
2023-03-28T16:15:32.887Z,28.85
2023-03-28T16:18:12.608Z,29.25
2023-03-28T16:20:50.347Z,29.21
2023-03-28T16:23:18.671Z,29.31
2023-03-28T16:25:50.651Z,29.65
2023-03-28T16:28:20.133Z,29.55
2023-03-28T16:30:48.428Z,29.39
2023-03-28T16:33:17.812Z,29.44
2023-03-28T16:35:46.246Z,29.44
2023-03-28T16:38:14.712Z,29.80
2023-03-28T16:40:43.103Z,30.98
2023-03-28T16:43:15.548Z,32.80
2023-03-28T16:45:47.115Z,33.37
2023-03-28T16:48:15.878Z,33.85
2023-03-28T16:50:50.688Z,34.42
2023-03-28T16:53:19.174Z,34.63
2023-03-28T16:55:47.620Z,35.01
2023-03-28T16:58:17.484Z,34.82
2023-03-28T17:00:48.116Z,34.71
2023-03-28T17:03:17.205Z,34.88
2023-03-28T17:05:45.726Z,35.01
2023-03-28T17:08:14.270Z,35.20
2023-03-28T17:10:43.864Z,35.41
2023-03-28T17:13:12.246Z,35.73
2023-03-28T17:15:42.501Z,36.07
2023-03-28T17:18:11.432Z,36.06
2023-03-28T17:20:39.809Z,36.22
2023-03-28T17:23:08.218Z,36.30
2023-03-28T17:25:48.119Z,36.43
2023-03-28T17:28:23.222Z,36.88
2023-03-28T17:30:53.397Z,36.96
2023-03-28T17:33:22.603Z,36.87
2023-03-28T17:35:51.295Z,37.31
2023-03-28T17:38:19.700Z,37.59
2023-03-28T17:40:48.248Z,37.79
2023-03-28T17:43:17.098Z,38.13
2023-03-28T17:45:45.509Z,38.50
2023-03-28T17:48:15.268Z,38.42
2023-03-28T17:50:43.684Z,38.83
2023-03-28T17:53:12.085Z,38.38
2023-03-28T17:55:40.859Z,38.57
2023-03-28T17:58:09.350Z,38.94
2023-03-28T18:00:38.192Z,39.09
2023-03-28T18:03:06.653Z,39.04
2023-03-28T18:06:00.453Z,39.22
2023-03-28T18:08:29.565Z,39.10
2023-03-28T18:11:02.159Z,39.87
2023-03-28T18:13:30.532Z,39.85
2023-03-28T18:15:59.015Z,40.27
2023-03-28T18:18:27.851Z,40.67
2023-03-28T18:20:57.934Z,41.49
2023-03-28T18:23:27.014Z,41.98
2023-03-28T18:25:55.374Z,42.26
2023-03-28T18:28:24.632Z,43.00
2023-03-28T18:30:53.732Z,43.60
2023-03-28T18:33:22.738Z,44.43
2023-03-28T18:35:51.370Z,44.09
2023-03-28T18:38:21.176Z,44.23
2023-03-28T18:40:53.588Z,44.66
2023-03-28T18:43:23.947Z,45.38
2023-03-28T18:45:56.343Z,45.80
2023-03-28T18:48:24.751Z,46.00
2023-03-28T18:50:53.335Z,46.68
2023-03-28T18:53:23.708Z,47.57
2023-03-28T18:55:52.688Z,47.38
2023-03-28T18:58:23.481Z,47.44
2023-03-28T19:00:59.327Z,48.21
2023-03-28T19:03:30.275Z,48.57
2023-03-28T19:06:00.539Z,48.80
2023-03-28T19:08:31.248Z,48.65
2023-03-28T19:11:01.721Z,48.80
2023-03-28T19:13:30.842Z,49.36
2023-03-28T19:16:00.705Z,49.60
2023-03-28T19:18:30.083Z,50.02
2023-03-28T19:20:58.676Z,50.36
2023-03-28T19:23:29.079Z,50.58
2023-03-28T19:25:58.901Z,50.63
2023-03-28T19:28:27.447Z,50.73
2023-03-28T19:31:00.137Z,51.10
2023-03-28T19:33:29.169Z,51.43
2023-03-28T19:35:58.227Z,51.74
2023-03-28T19:38:27.640Z,51.73
2023-03-28T19:41:01.091Z,51.65
2023-03-28T19:43:29.627Z,52.08
2023-03-28T19:46:02.814Z,52.27
2023-03-28T19:48:31.707Z,52.01
2023-03-28T19:51:00.160Z,52.37
2023-03-28T19:53:28.782Z,52.44
2023-03-28T19:55:59.095Z,52.61
2023-03-28T19:58:29.826Z,53.15
2023-03-28T20:00:58.477Z,53.18
2023-03-28T20:03:28.056Z,53.29
2023-03-28T20:05:56.461Z,53.89
2023-03-28T20:08:24.841Z,53.82
2023-03-28T20:10:53.883Z,54.21
2023-03-28T20:13:23.440Z,55.08
2023-03-28T20:15:53.344Z,55.21
2023-03-28T20:18:22.756Z,55.00
2023-03-28T20:20:52.130Z,55.58
2023-03-28T20:23:22.762Z,54.86
2023-03-28T20:25:52.300Z,55.29
2023-03-28T20:28:21.539Z,56.26
2023-03-28T20:30:50.029Z,56.28
2023-03-28T20:33:20.857Z,56.41
2023-03-28T20:35:53.398Z,56.04
2023-03-28T20:38:23.046Z,56.12
2023-03-28T20:40:51.510Z,56.74
2023-03-28T20:43:21.222Z,56.39
2023-03-28T20:45:53.815Z,56.46
2023-03-28T20:48:35.051Z,56.80
2023-03-28T20:51:04.153Z,57.32
2023-03-28T20:53:33.305Z,56.82
2023-03-28T20:56:03.615Z,57.66
2023-03-28T20:58:33.392Z,57.21
2023-03-28T21:01:04.239Z,57.72
2023-03-28T21:03:46.872Z,58.07
2023-03-28T21:06:16.441Z,58.42
2023-03-28T21:08:47.291Z,58.57
2023-03-28T21:11:16.519Z,58.63
2023-03-28T21:13:45.141Z,57.92
2023-03-28T21:16:16.028Z,57.82
2023-03-28T21:18:46.920Z,57.30
2023-03-28T21:21:18.020Z,57.80
2023-03-28T21:23:47.194Z,57.99
2023-03-28T21:26:18.014Z,58.39
2023-03-28T21:28:47.699Z,58.35
2023-03-28T21:31:20.963Z,58.29
2023-03-28T21:33:50.948Z,58.67
2023-03-28T21:36:21.070Z,58.94
2023-03-28T21:38:49.829Z,58.76
2023-03-28T21:41:18.358Z,58.43
2023-03-28T21:43:47.770Z,58.42
2023-03-28T21:46:18.657Z,58.29
2023-03-28T21:48:48.146Z,57.94
2023-03-28T21:51:18.918Z,58.71
2023-03-28T21:53:48.297Z,58.83
2023-03-28T21:56:16.938Z,59.40
2023-03-28T21:58:45.620Z,58.94
2023-03-28T22:01:18.133Z,59.22
2023-03-28T22:03:47.412Z,59.75
2023-03-28T22:06:18.526Z,59.13
2023-03-28T22:08:52.376Z,59.99
2023-03-28T22:11:27.763Z,59.65
2023-03-28T22:14:01.575Z,59.66
2023-03-28T22:16:35.136Z,59.42
2023-03-28T22:19:03.530Z,59.98
2023-03-28T22:21:33.501Z,60.57
2023-03-28T22:24:04.513Z,60.99
2023-03-28T22:26:32.924Z,60.88
2023-03-28T22:29:01.322Z,60.97
2023-03-28T22:31:29.905Z,61.03
2023-03-28T22:33:58.250Z,60.92
2023-03-28T22:36:27.221Z,61.56
2023-03-28T22:38:57.113Z,60.92
2023-03-28T22:41:25.706Z,61.16
2023-03-28T22:43:54.371Z,60.30
2023-03-28T22:46:22.988Z,60.39
2023-03-28T22:48:54.457Z,60.68
2023-03-28T22:51:25.367Z,60.60
2023-03-28T22:53:54.225Z,60.30
2023-03-28T22:56:25.571Z,60.89
2023-03-28T22:58:54.063Z,61.11
2023-03-28T23:01:26.220Z,61.07
2023-03-28T23:03:54.718Z,61.23
2023-03-28T23:06:23.498Z,61.32
2023-03-28T23:08:52.192Z,61.63
2023-03-28T23:11:20.577Z,61.90
2023-03-28T23:13:50.401Z,62.11
2023-03-28T23:16:18.872Z,61.91
2023-03-28T23:18:50.190Z,62.00
2023-03-28T23:21:18.985Z,61.88
2023-03-28T23:23:47.711Z,61.63
2023-03-28T23:26:16.868Z,61.70
2023-03-28T23:28:45.224Z,61.93
2023-03-28T23:31:15.229Z,62.26
2023-03-28T23:33:44.769Z,62.13
2023-03-28T23:36:14.195Z,61.48
2023-03-28T23:38:43.024Z,61.46
2023-03-28T23:41:11.368Z,61.51
2023-03-28T23:43:40.110Z,61.08
2023-03-28T23:46:09.143Z,61.39
2023-03-28T23:48:39.188Z,62.26
2023-03-28T23:51:09.216Z,62.11
2023-03-28T23:53:37.634Z,62.67
2023-03-28T23:56:07.093Z,63.06
2023-03-28T23:58:36.252Z,62.74
